Airfield :
LOGIN :

Register | Disclaimer

   EN    FR    IT 

 










Legend :    VFR   Marginal VFR   IFR   Intensive IFR   Very Intensive IFR
Visi :
Ceiling :
>= 8 km
>= 3000ft
5 to 8 km
1000 to 3000 ft
1500m to 5 km
500 to 1000 ft
800 to 1500m
200 to 500 ft
< 800m
< 200 ft
Symbols :   Thunderstorms  Fog  Heavy snow  Heavy precipitations  Wind > 20 kt
SIGMETs :     Misc.  Thunderstorms  Icing  Turbulence  Mountain Waves  Volcanic Ashes







- Airport Elevation : 308 ft
- IATA code : MHG


EDFM - Mannheim-City

CURRENT METAR :
  • 190650Z 00000KT CAVOK 10/10 Q1014

EXPIRED METARs :
  • 190620Z 10002KT CAVOK 11/11 Q1014
  • 190550Z 29001KT CAVOK 10/10 Q1014
  • 190520Z 00000KT CAVOK 09/09 Q1014
  • 190450Z VRB01KT CAVOK 09/09 Q1014
  • 190420Z VRB01KT CAVOK 08/08 Q1014

TAF TAF EDFM
Valid from the 19 at 06:00 until the 19 at 15:00 UTC


190500Z 1906/1915 VRB03KT CAVOK
PROB30
TEMPO 1906/1908 3000 BCFG
TEMPO 1911/1915 16005KT
No reported NOTAMs for that airfield.



MET'MAP, your aeronautical weather chart ! - Copyright ORBIFLY December 2007 - Disclaimer

ORBIFLY MET'MAP TEAM :

Programming & Development : Alexandra Zaïnal
Concept & Development : Baudouin d'Aumeries
Co-Development & Prog : Marc-Olivier Méhu
Technical & hardware support : Manuel Goepfert

Contact : metmap@orbifly.com




SOURCES & CREDITS :

   NOAA